sensor_id;sensor_type;location;lat;lon;timestamp;temperature;humidity
72591;SHT31;60625;51.212;5.952;2023-05-02T00:03:27;11.12;80.78
72591;SHT31;60625;51.212;5.952;2023-05-02T00:08:28;11.15;80.90
72591;SHT31;60625;51.212;5.952;2023-05-02T00:13:28;11.20;81.03
72591;SHT31;60625;51.212;5.952;2023-05-02T00:18:28;11.24;81.12
72591;SHT31;60625;51.212;5.952;2023-05-02T00:23:29;11.29;81.14
72591;SHT31;60625;51.212;5.952;2023-05-02T00:28:29;11.36;81.11
72591;SHT31;60625;51.212;5.952;2023-05-02T00:33:31;11.39;81.19
72591;SHT31;60625;51.212;5.952;2023-05-02T00:38:31;11.39;81.22
72591;SHT31;60625;51.212;5.952;2023-05-02T00:43:32;11.39;81.22
72591;SHT31;60625;51.212;5.952;2023-05-02T00:48:32;11.40;81.29
72591;SHT31;60625;51.212;5.952;2023-05-02T00:53:35;11.41;81.25
72591;SHT31;60625;51.212;5.952;2023-05-02T00:58:36;11.42;81.24
72591;SHT31;60625;51.212;5.952;2023-05-02T01:14:47;11.49;81.21
72591;SHT31;60625;51.212;5.952;2023-05-02T01:19:59;11.51;81.21
72591;SHT31;60625;51.212;5.952;2023-05-02T01:25:19;11.52;81.28
72591;SHT31;60625;51.212;5.952;2023-05-02T01:30:31;11.54;81.19
72591;SHT31;60625;51.212;5.952;2023-05-02T01:35:35;11.55;81.03
72591;SHT31;60625;51.212;5.952;2023-05-02T01:40:38;11.56;80.99
72591;SHT31;60625;51.212;5.952;2023-05-02T01:45:41;11.58;80.92
72591;SHT31;60625;51.212;5.952;2023-05-02T01:50:44;11.60;80.92
72591;SHT31;60625;51.212;5.952;2023-05-02T01:55:46;11.63;80.92
72591;SHT31;60625;51.212;5.952;2023-05-02T02:00:48;11.64;81.04
72591;SHT31;60625;51.212;5.952;2023-05-02T02:05:50;11.64;80.89
72591;SHT31;60625;51.212;5.952;2023-05-02T02:11:03;11.64;80.64
72591;SHT31;60625;51.212;5.952;2023-05-02T02:16:10;11.63;80.46
72591;SHT31;60625;51.212;5.952;2023-05-02T02:21:15;11.63;80.21
72591;SHT31;60625;51.212;5.952;2023-05-02T02:26:19;11.62;80.14
72591;SHT31;60625;51.212;5.952;2023-05-02T02:31:21;11.60;80.11
72591;SHT31;60625;51.212;5.952;2023-05-02T02:41:39;11.56;79.53
72591;SHT31;60625;51.212;5.952;2023-05-02T02:46:49;11.48;78.84
72591;SHT31;60625;51.212;5.952;2023-05-02T02:52:20;11.39;78.79
72591;SHT31;60625;51.212;5.952;2023-05-02T02:57:34;11.34;78.81
72591;SHT31;60625;51.212;5.952;2023-05-02T03:02:42;11.28;78.86
72591;SHT31;60625;51.212;5.952;2023-05-02T03:07:46;11.22;78.91
72591;SHT31;60625;51.212;5.952;2023-05-02T03:12:47;11.18;79.02
72591;SHT31;60625;51.212;5.952;2023-05-02T03:17:48;11.14;79.07
72591;SHT31;60625;51.212;5.952;2023-05-02T03:22:49;11.14;79.16
72591;SHT31;60625;51.212;5.952;2023-05-02T03:27:50;11.15;79.15
72591;SHT31;60625;51.212;5.952;2023-05-02T03:32:51;11.16;79.22
72591;SHT31;60625;51.212;5.952;2023-05-02T03:37:52;11.16;79.30
72591;SHT31;60625;51.212;5.952;2023-05-02T03:42:53;11.17;79.33
72591;SHT31;60625;51.212;5.952;2023-05-02T03:47:57;11.18;79.42
72591;SHT31;60625;51.212;5.952;2023-05-02T03:52:58;11.17;79.57
72591;SHT31;60625;51.212;5.952;2023-05-02T03:58:04;11.17;79.60
72591;SHT31;60625;51.212;5.952;2023-05-02T04:03:05;11.15;79.75
72591;SHT31;60625;51.212;5.952;2023-05-02T04:08:07;11.13;79.87
72591;SHT31;60625;51.212;5.952;2023-05-02T04:13:10;11.12;80.00
72591;SHT31;60625;51.212;5.952;2023-05-02T04:18:13;11.10;80.24
72591;SHT31;60625;51.212;5.952;2023-05-02T04:23:14;11.07;80.38
72591;SHT31;60625;51.212;5.952;2023-05-02T04:28:15;11.07;80.54
72591;SHT31;60625;51.212;5.952;2023-05-02T04:33:16;11.06;80.71
72591;SHT31;60625;51.212;5.952;2023-05-02T04:38:18;11.05;80.86
72591;SHT31;60625;51.212;5.952;2023-05-02T04:43:21;11.06;80.93
72591;SHT31;60625;51.212;5.952;2023-05-02T04:48:28;11.09;80.94
72591;SHT31;60625;51.212;5.952;2023-05-02T04:53:29;11.11;80.96
72591;SHT31;60625;51.212;5.952;2023-05-02T04:58:29;11.14;80.97
72591;SHT31;60625;51.212;5.952;2023-05-02T05:03:33;11.17;81.06
72591;SHT31;60625;51.212;5.952;2023-05-02T05:08:34;11.17;81.28
72591;SHT31;60625;51.212;5.952;2023-05-02T05:13:36;11.16;81.64
72591;SHT31;60625;51.212;5.952;2023-05-02T05:18:38;11.15;82.08
72591;SHT31;60625;51.212;5.952;2023-05-02T05:23:44;11.12;82.43
72591;SHT31;60625;51.212;5.952;2023-05-02T05:28:48;11.13;82.64
72591;SHT31;60625;51.212;5.952;2023-05-02T05:33:50;11.14;82.86
72591;SHT31;60625;51.212;5.952;2023-05-02T05:38:51;11.13;82.99
72591;SHT31;60625;51.212;5.952;2023-05-02T05:43:52;11.10;82.78
72591;SHT31;60625;51.212;5.952;2023-05-02T05:48:54;11.08;82.07
72591;SHT31;60625;51.212;5.952;2023-05-02T05:53:54;11.07;81.68
72591;SHT31;60625;51.212;5.952;2023-05-02T05:58:55;11.07;81.31
72591;SHT31;60625;51.212;5.952;2023-05-02T06:03:56;11.08;80.78
72591;SHT31;60625;51.212;5.952;2023-05-02T06:08:56;11.12;80.23
72591;SHT31;60625;51.212;5.952;2023-05-02T06:13:57;11.11;79.43
72591;SHT31;60625;51.212;5.952;2023-05-02T06:18:58;11.14;78.99
72591;SHT31;60625;51.212;5.952;2023-05-02T06:23:58;11.13;78.22
72591;SHT31;60625;51.212;5.952;2023-05-02T06:28:59;11.14;77.03
72591;SHT31;60625;51.212;5.952;2023-05-02T06:34:00;11.27;77.04
72591;SHT31;60625;51.212;5.952;2023-05-02T06:39:00;11.40;75.78
72591;SHT31;60625;51.212;5.952;2023-05-02T06:44:01;11.47;74.82
72591;SHT31;60625;51.212;5.952;2023-05-02T06:49:03;11.60;73.50
72591;SHT31;60625;51.212;5.952;2023-05-02T06:54:04;11.75;72.80
72591;SHT31;60625;51.212;5.952;2023-05-02T06:59:05;11.74;72.72
72591;SHT31;60625;51.212;5.952;2023-05-02T07:04:06;11.84;72.39
72591;SHT31;60625;51.212;5.952;2023-05-02T07:09:06;11.89;72.61
72591;SHT31;60625;51.212;5.952;2023-05-02T07:14:07;11.94;72.49
72591;SHT31;60625;51.212;5.952;2023-05-02T07:19:07;11.96;72.71
72591;SHT31;60625;51.212;5.952;2023-05-02T07:24:08;11.96;72.55
72591;SHT31;60625;51.212;5.952;2023-05-02T07:29:08;11.97;72.01
72591;SHT31;60625;51.212;5.952;2023-05-02T07:34:08;12.15;71.88
72591;SHT31;60625;51.212;5.952;2023-05-02T07:39:09;12.51;70.96
72591;SHT31;60625;51.212;5.952;2023-05-02T07:44:10;12.71;70.28
72591;SHT31;60625;51.212;5.952;2023-05-02T07:49:11;12.73;69.61
72591;SHT31;60625;51.212;5.952;2023-05-02T07:59:19;12.69;69.85
72591;SHT31;60625;51.212;5.952;2023-05-02T08:04:20;12.88;68.08
72591;SHT31;60625;51.212;5.952;2023-05-02T08:09:20;12.88;67.44
72591;SHT31;60625;51.212;5.952;2023-05-02T08:14:21;12.87;66.65
72591;SHT31;60625;51.212;5.952;2023-05-02T08:19:22;12.93;67.31
72591;SHT31;60625;51.212;5.952;2023-05-02T08:24:22;12.89;67.72
72591;SHT31;60625;51.212;5.952;2023-05-02T08:29:23;12.76;67.74
72591;SHT31;60625;51.212;5.952;2023-05-02T08:34:24;12.48;67.17
72591;SHT31;60625;51.212;5.952;2023-05-02T08:39:24;12.28;66.82
72591;SHT31;60625;51.212;5.952;2023-05-02T08:44:25;12.19;66.61
72591;SHT31;60625;51.212;5.952;2023-05-02T08:49:26;12.22;65.68
72591;SHT31;60625;51.212;5.952;2023-05-02T08:54:29;12.30;64.86
72591;SHT31;60625;51.212;5.952;2023-05-02T08:59:31;12.43;64.65
72591;SHT31;60625;51.212;5.952;2023-05-02T09:04:31;12.60;63.94
72591;SHT31;60625;51.212;5.952;2023-05-02T09:09:33;12.91;64.18
72591;SHT31;60625;51.212;5.952;2023-05-02T09:14:34;13.17;64.19
72591;SHT31;60625;51.212;5.952;2023-05-02T09:19:35;13.32;62.44
72591;SHT31;60625;51.212;5.952;2023-05-02T09:24:35;13.49;61.76
72591;SHT31;60625;51.212;5.952;2023-05-02T09:29:37;13.61;61.92
72591;SHT31;60625;51.212;5.952;2023-05-02T09:34:39;13.54;61.59
72591;SHT31;60625;51.212;5.952;2023-05-02T09:40:05;13.34;62.40
72591;SHT31;60625;51.212;5.952;2023-05-02T09:45:16;13.16;63.17
72591;SHT31;60625;51.212;5.952;2023-05-02T09:50:41;13.07;63.35
72591;SHT31;60625;51.212;5.952;2023-05-02T09:55:41;13.06;63.28
72591;SHT31;60625;51.212;5.952;2023-05-02T10:00:42;13.04;62.65
72591;SHT31;60625;51.212;5.952;2023-05-02T10:05:44;12.93;61.78
72591;SHT31;60625;51.212;5.952;2023-05-02T10:10:57;12.76;61.82
72591;SHT31;60625;51.212;5.952;2023-05-02T10:16:00;12.69;61.53
72591;SHT31;60625;51.212;5.952;2023-05-02T10:21:07;12.76;61.38
72591;SHT31;60625;51.212;5.952;2023-05-02T10:26:13;12.88;60.27
72591;SHT31;60625;51.212;5.952;2023-05-02T10:31:17;13.07;59.65
72591;SHT31;60625;51.212;5.952;2023-05-02T10:36:21;13.30;59.56
72591;SHT31;60625;51.212;5.952;2023-05-02T10:41:23;13.79;59.01
72591;SHT31;60625;51.212;5.952;2023-05-02T10:51:37;14.36;58.37
72591;SHT31;60625;51.212;5.952;2023-05-02T11:02:01;14.24;56.17
72591;SHT31;60625;51.212;5.952;2023-05-02T11:12:05;14.40;54.28
72591;SHT31;60625;51.212;5.952;2023-05-02T11:17:09;14.68;53.88
72591;SHT31;60625;51.212;5.952;2023-05-02T11:38:01;14.91;53.60
72591;SHT31;60625;51.212;5.952;2023-05-02T11:43:13;14.92;52.03
72591;SHT31;60625;51.212;5.952;2023-05-02T11:48:17;14.77;52.17
72591;SHT31;60625;51.212;5.952;2023-05-02T11:53:20;14.71;53.00
72591;SHT31;60625;51.212;5.952;2023-05-02T11:58:28;14.95;52.14
72591;SHT31;60625;51.212;5.952;2023-05-02T12:03:33;14.91;50.28
72591;SHT31;60625;51.212;5.952;2023-05-02T12:08:34;15.25;50.47
72591;SHT31;60625;51.212;5.952;2023-05-02T12:13:36;15.27;50.85
72591;SHT31;60625;51.212;5.952;2023-05-02T12:18:46;15.19;51.13
72591;SHT31;60625;51.212;5.952;2023-05-02T12:23:47;15.30;51.44
72591;SHT31;60625;51.212;5.952;2023-05-02T12:28:51;15.28;51.68
72591;SHT31;60625;51.212;5.952;2023-05-02T12:33:53;15.68;49.10
72591;SHT31;60625;51.212;5.952;2023-05-02T12:38:57;16.07;49.50
72591;SHT31;60625;51.212;5.952;2023-05-02T12:44:00;15.94;48.83
72591;SHT31;60625;51.212;5.952;2023-05-02T12:49:08;15.72;49.21
72591;SHT31;60625;51.212;5.952;2023-05-02T12:54:18;15.97;47.15
72591;SHT31;60625;51.212;5.952;2023-05-02T12:59:30;16.46;47.60
72591;SHT31;60625;51.212;5.952;2023-05-02T13:04:37;16.65;47.90
72591;SHT31;60625;51.212;5.952;2023-05-02T13:09:40;16.25;47.69
72591;SHT31;60625;51.212;5.952;2023-05-02T13:14:41;16.17;47.39
72591;SHT31;60625;51.212;5.952;2023-05-02T13:19:41;16.18;45.61
72591;SHT31;60625;51.212;5.952;2023-05-02T13:24:41;16.32;45.77
72591;SHT31;60625;51.212;5.952;2023-05-02T13:29:42;16.52;45.50
72591;SHT31;60625;51.212;5.952;2023-05-02T13:34:45;16.16;45.33
72591;SHT31;60625;51.212;5.952;2023-05-02T13:39:46;16.15;45.26
72591;SHT31;60625;51.212;5.952;2023-05-02T13:44:47;16.58;45.96
72591;SHT31;60625;51.212;5.952;2023-05-02T13:49:48;17.02;45.04
72591;SHT31;60625;51.212;5.952;2023-05-02T13:54:48;16.83;43.92
72591;SHT31;60625;51.212;5.952;2023-05-02T13:59:49;16.48;43.99
72591;SHT31;60625;51.212;5.952;2023-05-02T14:04:50;16.71;43.96
72591;SHT31;60625;51.212;5.952;2023-05-02T14:09:50;16.95;43.47
72591;SHT31;60625;51.212;5.952;2023-05-02T14:14:51;16.85;42.03
72591;SHT31;60625;51.212;5.952;2023-05-02T14:19:52;16.43;42.99
72591;SHT31;60625;51.212;5.952;2023-05-02T14:24:52;16.12;43.86
72591;SHT31;60625;51.212;5.952;2023-05-02T14:29:52;16.28;43.56
72591;SHT31;60625;51.212;5.952;2023-05-02T14:34:53;16.36;42.13
72591;SHT31;60625;51.212;5.952;2023-05-02T14:39:53;16.26;43.10
72591;SHT31;60625;51.212;5.952;2023-05-02T14:44:55;16.42;42.60
72591;SHT31;60625;51.212;5.952;2023-05-02T14:49:56;16.39;41.17
72591;SHT31;60625;51.212;5.952;2023-05-02T14:55:00;16.51;41.72
72591;SHT31;60625;51.212;5.952;2023-05-02T15:00:02;16.69;40.60
72591;SHT31;60625;51.212;5.952;2023-05-02T15:05:06;16.68;41.08
72591;SHT31;60625;51.212;5.952;2023-05-02T15:10:11;16.89;41.06
72591;SHT31;60625;51.212;5.952;2023-05-02T15:15:11;16.98;39.78
72591;SHT31;60625;51.212;5.952;2023-05-02T15:20:12;17.09;39.89
72591;SHT31;60625;51.212;5.952;2023-05-02T15:25:12;17.12;40.55
72591;SHT31;60625;51.212;5.952;2023-05-02T15:30:13;17.10;39.29
72591;SHT31;60625;51.212;5.952;2023-05-02T15:35:13;16.86;39.77
72591;SHT31;60625;51.212;5.952;2023-05-02T15:40:14;16.92;40.01
72591;SHT31;60625;51.212;5.952;2023-05-02T15:45:14;16.90;39.26
72591;SHT31;60625;51.212;5.952;2023-05-02T15:50:15;16.78;39.22
72591;SHT31;60625;51.212;5.952;2023-05-02T15:55:15;16.68;39.53
72591;SHT31;60625;51.212;5.952;2023-05-02T16:00:16;16.75;38.78
72591;SHT31;60625;51.212;5.952;2023-05-02T16:05:17;16.67;39.10
72591;SHT31;60625;51.212;5.952;2023-05-02T16:10:17;16.63;39.16
72591;SHT31;60625;51.212;5.952;2023-05-02T16:15:20;16.46;39.72
72591;SHT31;60625;51.212;5.952;2023-05-02T16:20:22;16.37;40.06
72591;SHT31;60625;51.212;5.952;2023-05-02T16:25:22;16.38;39.43
72591;SHT31;60625;51.212;5.952;2023-05-02T16:30:23;16.29;39.63
72591;SHT31;60625;51.212;5.952;2023-05-02T16:35:23;16.21;39.87
72591;SHT31;60625;51.212;5.952;2023-05-02T16:40:24;16.07;38.63
72591;SHT31;60625;51.212;5.952;2023-05-02T16:45:24;15.90;38.88
72591;SHT31;60625;51.212;5.952;2023-05-02T16:50:25;15.75;39.13
72591;SHT31;60625;51.212;5.952;2023-05-02T16:55:25;15.65;39.20
72591;SHT31;60625;51.212;5.952;2023-05-02T17:00:26;15.55;39.26
72591;SHT31;60625;51.212;5.952;2023-05-02T17:05:26;15.44;39.71
72591;SHT31;60625;51.212;5.952;2023-05-02T17:10:26;15.34;41.33
72591;SHT31;60625;51.212;5.952;2023-05-02T17:15:27;15.22;40.33
72591;SHT31;60625;51.212;5.952;2023-05-02T17:20:29;15.17;40.76
72591;SHT31;60625;51.212;5.952;2023-05-02T17:25:29;15.11;40.40
72591;SHT31;60625;51.212;5.952;2023-05-02T17:30:30;14.98;40.92
72591;SHT31;60625;51.212;5.952;2023-05-02T17:35:31;14.95;42.49
72591;SHT31;60625;51.212;5.952;2023-05-02T17:40:31;14.86;42.46
72591;SHT31;60625;51.212;5.952;2023-05-02T17:45:32;14.77;41.94
72591;SHT31;60625;51.212;5.952;2023-05-02T17:50:38;14.67;42.08
72591;SHT31;60625;51.212;5.952;2023-05-02T17:55:40;14.58;41.88
72591;SHT31;60625;51.212;5.952;2023-05-02T18:00:40;14.58;42.45
72591;SHT31;60625;51.212;5.952;2023-05-02T18:05:40;14.98;41.78
72591;SHT31;60625;51.212;5.952;2023-05-02T18:10:43;14.81;42.33
72591;SHT31;60625;51.212;5.952;2023-05-02T18:15:43;14.53;42.88
72591;SHT31;60625;51.212;5.952;2023-05-02T18:20:45;14.34;43.39
72591;SHT31;60625;51.212;5.952;2023-05-02T18:25:45;14.10;44.08
72591;SHT31;60625;51.212;5.952;2023-05-02T18:30:45;13.96;44.42
72591;SHT31;60625;51.212;5.952;2023-05-02T18:35:46;13.80;45.22
72591;SHT31;60625;51.212;5.952;2023-05-02T18:40:48;13.52;47.15
72591;SHT31;60625;51.212;5.952;2023-05-02T18:45:48;13.20;48.74
72591;SHT31;60625;51.212;5.952;2023-05-02T18:50:49;12.92;50.57
72591;SHT31;60625;51.212;5.952;2023-05-02T18:55:53;12.71;51.01
72591;SHT31;60625;51.212;5.952;2023-05-02T19:00:54;12.57;51.17
72591;SHT31;60625;51.212;5.952;2023-05-02T19:05:54;12.44;51.44
72591;SHT31;60625;51.212;5.952;2023-05-02T19:10:55;12.32;51.78
72591;SHT31;60625;51.212;5.952;2023-05-02T19:15:56;12.18;52.35
72591;SHT31;60625;51.212;5.952;2023-05-02T19:20:58;12.02;52.71
72591;SHT31;60625;51.212;5.952;2023-05-02T19:25:59;11.88;52.92
72591;SHT31;60625;51.212;5.952;2023-05-02T19:30:59;11.73;53.34
72591;SHT31;60625;51.212;5.952;2023-05-02T19:35:59;11.57;53.98
72591;SHT31;60625;51.212;5.952;2023-05-02T19:41:00;11.45;54.21
72591;SHT31;60625;51.212;5.952;2023-05-02T19:46:02;11.34;54.29
72591;SHT31;60625;51.212;5.952;2023-05-02T19:51:03;11.23;54.76
72591;SHT31;60625;51.212;5.952;2023-05-02T19:56:04;11.13;55.25
72591;SHT31;60625;51.212;5.952;2023-05-02T20:01:06;11.05;55.29
72591;SHT31;60625;51.212;5.952;2023-05-02T20:06:06;10.97;55.56
72591;SHT31;60625;51.212;5.952;2023-05-02T20:11:07;10.90;55.78
72591;SHT31;60625;51.212;5.952;2023-05-02T20:16:07;10.83;56.07
72591;SHT31;60625;51.212;5.952;2023-05-02T20:21:09;10.77;55.79
72591;SHT31;60625;51.212;5.952;2023-05-02T20:26:10;10.70;55.76
72591;SHT31;60625;51.212;5.952;2023-05-02T20:31:10;10.59;55.99
72591;SHT31;60625;51.212;5.952;2023-05-02T20:36:11;10.48;56.43
72591;SHT31;60625;51.212;5.952;2023-05-02T20:41:13;10.41;56.42
72591;SHT31;60625;51.212;5.952;2023-05-02T20:46:13;10.34;56.48
72591;SHT31;60625;51.212;5.952;2023-05-02T20:51:18;10.27;56.60
72591;SHT31;60625;51.212;5.952;2023-05-02T20:56:18;10.16;56.83
72591;SHT31;60625;51.212;5.952;2023-05-02T21:01:20;10.08;56.83
72591;SHT31;60625;51.212;5.952;2023-05-02T21:06:20;9.97;57.24
72591;SHT31;60625;51.212;5.952;2023-05-02T21:11:20;9.84;57.63
72591;SHT31;60625;51.212;5.952;2023-05-02T21:16:21;9.71;58.06
72591;SHT31;60625;51.212;5.952;2023-05-02T21:21:22;9.58;58.65
72591;SHT31;60625;51.212;5.952;2023-05-02T21:26:22;9.47;58.92
72591;SHT31;60625;51.212;5.952;2023-05-02T21:31:23;9.38;59.36
72591;SHT31;60625;51.212;5.952;2023-05-02T21:36:24;9.29;59.62
72591;SHT31;60625;51.212;5.952;2023-05-02T21:41:26;9.21;59.90
72591;SHT31;60625;51.212;5.952;2023-05-02T21:46:26;9.12;60.01
72591;SHT31;60625;51.212;5.952;2023-05-02T21:51:27;9.04;60.39
72591;SHT31;60625;51.212;5.952;2023-05-02T21:56:27;8.95;60.59
72591;SHT31;60625;51.212;5.952;2023-05-02T22:01:28;8.90;60.84
72591;SHT31;60625;51.212;5.952;2023-05-02T22:06:28;8.85;60.85
72591;SHT31;60625;51.212;5.952;2023-05-02T22:11:29;8.77;61.25
72591;SHT31;60625;51.212;5.952;2023-05-02T22:16:30;8.71;61.55
72591;SHT31;60625;51.212;5.952;2023-05-02T22:21:31;8.64;61.90
72591;SHT31;60625;51.212;5.952;2023-05-02T22:26:32;8.59;62.22
72591;SHT31;60625;51.212;5.952;2023-05-02T22:31:32;8.50;62.40
72591;SHT31;60625;51.212;5.952;2023-05-02T22:36:33;8.41;63.09
72591;SHT31;60625;51.212;5.952;2023-05-02T22:41:34;8.31;63.44
72591;SHT31;60625;51.212;5.952;2023-05-02T22:46:35;8.21;63.76
72591;SHT31;60625;51.212;5.952;2023-05-02T22:51:37;8.13;64.03
72591;SHT31;60625;51.212;5.952;2023-05-02T22:56:39;8.09;64.38
72591;SHT31;60625;51.212;5.952;2023-05-02T23:01:40;8.03;64.77
72591;SHT31;60625;51.212;5.952;2023-05-02T23:06:40;7.97;64.94
72591;SHT31;60625;51.212;5.952;2023-05-02T23:11:41;7.91;65.21
72591;SHT31;60625;51.212;5.952;2023-05-02T23:16:42;7.82;65.72
72591;SHT31;60625;51.212;5.952;2023-05-02T23:21:42;7.76;66.05
72591;SHT31;60625;51.212;5.952;2023-05-02T23:26:42;7.72;66.36
72591;SHT31;60625;51.212;5.952;2023-05-02T23:31:43;7.68;66.61
72591;SHT31;60625;51.212;5.952;2023-05-02T23:36:43;7.64;66.86
72591;SHT31;60625;51.212;5.952;2023-05-02T23:41:44;7.58;67.11
72591;SHT31;60625;51.212;5.952;2023-05-02T23:46:44;7.55;67.34
72591;SHT31;60625;51.212;5.952;2023-05-02T23:51:46;7.50;67.60
72591;SHT31;60625;51.212;5.952;2023-05-02T23:56:46;7.42;67.83
